sensor_id;sensor_type;location;lat;lon;timestamp;temperature;humidity
4052;DHT22;2040;50.924;11.604;2023-04-01T00:00:55;8.50;99.90
4052;DHT22;2040;50.924;11.604;2023-04-01T00:03:22;8.50;99.90
4052;DHT22;2040;50.924;11.604;2023-04-01T00:05:48;8.50;99.90
4052;DHT22;2040;50.924;11.604;2023-04-01T00:08:16;8.50;99.90
4052;DHT22;2040;50.924;11.604;2023-04-01T00:10:42;8.50;99.90
4052;DHT22;2040;50.924;11.604;2023-04-01T00:13:08;8.40;99.90
4052;DHT22;2040;50.924;11.604;2023-04-01T00:15:34;8.40;99.90
4052;DHT22;2040;50.924;11.604;2023-04-01T00:18:00;8.50;99.90
4052;DHT22;2040;50.924;11.604;2023-04-01T00:20:26;8.50;99.90
4052;DHT22;2040;50.924;11.604;2023-04-01T00:22:52;8.50;99.90
4052;DHT22;2040;50.924;11.604;2023-04-01T00:25:18;8.50;99.90
4052;DHT22;2040;50.924;11.604;2023-04-01T00:27:44;8.50;99.90
4052;DHT22;2040;50.924;11.604;2023-04-01T00:30:10;8.40;99.90
4052;DHT22;2040;50.924;11.604;2023-04-01T00:32:36;8.40;99.90
4052;DHT22;2040;50.924;11.604;2023-04-01T00:35:03;8.40;99.90
4052;DHT22;2040;50.924;11.604;2023-04-01T00:37:29;8.40;99.90
4052;DHT22;2040;50.924;11.604;2023-04-01T00:39:55;8.50;99.90
4052;DHT22;2040;50.924;11.604;2023-04-01T00:42:21;8.50;99.90
4052;DHT22;2040;50.924;11.604;2023-04-01T00:44:54;8.50;99.90
4052;DHT22;2040;50.924;11.604;2023-04-01T00:47:20;8.50;99.90
4052;DHT22;2040;50.924;11.604;2023-04-01T00:49:49;8.50;99.90
4052;DHT22;2040;50.924;11.604;2023-04-01T00:52:18;8.50;99.90
4052;DHT22;2040;50.924;11.604;2023-04-01T00:54:46;8.50;99.90
4052;DHT22;2040;50.924;11.604;2023-04-01T00:57:23;8.40;99.90
4052;DHT22;2040;50.924;11.604;2023-04-01T00:59:53;8.40;99.90
4052;DHT22;2040;50.924;11.604;2023-04-01T01:02:19;8.40;99.90
4052;DHT22;2040;50.924;11.604;2023-04-01T01:04:45;8.40;99.90
4052;DHT22;2040;50.924;11.604;2023-04-01T01:07:29;8.40;99.90
4052;DHT22;2040;50.924;11.604;2023-04-01T01:15:25;8.40;99.90
4052;DHT22;2040;50.924;11.604;2023-04-01T01:18:14;8.50;99.90
4052;DHT22;2040;50.924;11.604;2023-04-01T01:26:44;8.50;99.90
4052;DHT22;2040;50.924;11.604;2023-04-01T01:29:28;8.50;99.90
4052;DHT22;2040;50.924;11.604;2023-04-01T01:35:05;8.50;99.90
4052;DHT22;2040;50.924;11.604;2023-04-01T01:37:33;8.50;99.90
4052;DHT22;2040;50.924;11.604;2023-04-01T01:40:05;8.60;99.90
4052;DHT22;2040;50.924;11.604;2023-04-01T01:42:34;8.50;99.90
4052;DHT22;2040;50.924;11.604;2023-04-01T01:45:01;8.50;99.90
4052;DHT22;2040;50.924;11.604;2023-04-01T01:47:28;8.40;99.90
4052;DHT22;2040;50.924;11.604;2023-04-01T01:49:55;8.50;99.90
4052;DHT22;2040;50.924;11.604;2023-04-01T01:52:22;8.60;99.90
4052;DHT22;2040;50.924;11.604;2023-04-01T01:54:53;8.60;99.90
4052;DHT22;2040;50.924;11.604;2023-04-01T01:57:24;8.50;99.90
4052;DHT22;2040;50.924;11.604;2023-04-01T01:59:53;8.50;99.90
4052;DHT22;2040;50.924;11.604;2023-04-01T02:02:20;8.50;99.90
4052;DHT22;2040;50.924;11.604;2023-04-01T02:04:47;8.50;99.90
4052;DHT22;2040;50.924;11.604;2023-04-01T02:07:20;8.50;99.90
4052;DHT22;2040;50.924;11.604;2023-04-01T02:09:48;8.60;99.90
4052;DHT22;2040;50.924;11.604;2023-04-01T02:12:15;8.50;99.90
4052;DHT22;2040;50.924;11.604;2023-04-01T02:15:08;8.50;99.90
4052;DHT22;2040;50.924;11.604;2023-04-01T02:17:39;8.50;99.90
4052;DHT22;2040;50.924;11.604;2023-04-01T02:20:09;8.40;99.90
4052;DHT22;2040;50.924;11.604;2023-04-01T02:22:49;8.50;99.90
4052;DHT22;2040;50.924;11.604;2023-04-01T02:25:37;8.50;99.90
4052;DHT22;2040;50.924;11.604;2023-04-01T02:28:05;8.50;99.90
4052;DHT22;2040;50.924;11.604;2023-04-01T02:30:34;8.50;99.90
4052;DHT22;2040;50.924;11.604;2023-04-01T02:33:01;8.60;99.90
4052;DHT22;2040;50.924;11.604;2023-04-01T02:35:28;8.50;99.90
4052;DHT22;2040;50.924;11.604;2023-04-01T02:37:54;8.50;99.90
4052;DHT22;2040;50.924;11.604;2023-04-01T02:40:20;8.50;99.90
4052;DHT22;2040;50.924;11.604;2023-04-01T02:42:46;8.40;99.90
4052;DHT22;2040;50.924;11.604;2023-04-01T02:45:12;8.40;99.90
4052;DHT22;2040;50.924;11.604;2023-04-01T02:47:38;8.40;99.90
4052;DHT22;2040;50.924;11.604;2023-04-01T02:50:04;8.40;99.90
4052;DHT22;2040;50.924;11.604;2023-04-01T02:52:31;8.40;99.90
4052;DHT22;2040;50.924;11.604;2023-04-01T02:54:57;8.40;99.90
4052;DHT22;2040;50.924;11.604;2023-04-01T02:57:23;8.40;99.90
4052;DHT22;2040;50.924;11.604;2023-04-01T02:59:49;8.40;99.90
4052;DHT22;2040;50.924;11.604;2023-04-01T03:02:16;8.30;99.90
4052;DHT22;2040;50.924;11.604;2023-04-01T03:04:41;8.30;99.90
4052;DHT22;2040;50.924;11.604;2023-04-01T03:07:08;8.30;99.90
4052;DHT22;2040;50.924;11.604;2023-04-01T03:09:36;8.20;99.90
4052;DHT22;2040;50.924;11.604;2023-04-01T03:12:01;8.20;99.90
4052;DHT22;2040;50.924;11.604;2023-04-01T03:14:27;8.20;99.90
4052;DHT22;2040;50.924;11.604;2023-04-01T03:16:52;8.20;99.90
4052;DHT22;2040;50.924;11.604;2023-04-01T03:19:18;8.20;99.90
4052;DHT22;2040;50.924;11.604;2023-04-01T03:21:43;8.20;99.90
4052;DHT22;2040;50.924;11.604;2023-04-01T03:24:09;8.20;99.90
4052;DHT22;2040;50.924;11.604;2023-04-01T03:26:35;8.10;99.90
4052;DHT22;2040;50.924;11.604;2023-04-01T03:29:00;8.20;99.90
4052;DHT22;2040;50.924;11.604;2023-04-01T03:31:26;8.20;99.90
4052;DHT22;2040;50.924;11.604;2023-04-01T03:33:51;8.20;99.90
4052;DHT22;2040;50.924;11.604;2023-04-01T03:36:17;8.20;99.90
4052;DHT22;2040;50.924;11.604;2023-04-01T03:38:44;8.20;99.90
4052;DHT22;2040;50.924;11.604;2023-04-01T03:41:14;8.20;99.90
4052;DHT22;2040;50.924;11.604;2023-04-01T03:43:40;8.20;99.90
4052;DHT22;2040;50.924;11.604;2023-04-01T03:46:07;8.10;99.90
4052;DHT22;2040;50.924;11.604;2023-04-01T03:48:33;8.10;99.90
4052;DHT22;2040;50.924;11.604;2023-04-01T03:50:58;8.10;99.90
4052;DHT22;2040;50.924;11.604;2023-04-01T03:53:24;8.10;99.90
4052;DHT22;2040;50.924;11.604;2023-04-01T03:55:50;8.20;99.90
4052;DHT22;2040;50.924;11.604;2023-04-01T03:58:16;8.20;99.90
4052;DHT22;2040;50.924;11.604;2023-04-01T04:00:42;8.20;99.90
4052;DHT22;2040;50.924;11.604;2023-04-01T04:03:08;8.20;99.90
4052;DHT22;2040;50.924;11.604;2023-04-01T04:05:33;8.20;99.90
4052;DHT22;2040;50.924;11.604;2023-04-01T04:07:59;8.10;99.90
4052;DHT22;2040;50.924;11.604;2023-04-01T04:10:24;8.10;99.90
4052;DHT22;2040;50.924;11.604;2023-04-01T04:12:50;8.10;99.90
4052;DHT22;2040;50.924;11.604;2023-04-01T04:15:16;8.10;99.90
4052;DHT22;2040;50.924;11.604;2023-04-01T04:17:43;8.10;99.90
4052;DHT22;2040;50.924;11.604;2023-04-01T04:20:09;8.20;99.90
4052;DHT22;2040;50.924;11.604;2023-04-01T04:22:35;8.20;99.90
4052;DHT22;2040;50.924;11.604;2023-04-01T04:25:01;8.20;99.90
4052;DHT22;2040;50.924;11.604;2023-04-01T04:27:26;8.20;99.90
4052;DHT22;2040;50.924;11.604;2023-04-01T04:29:52;8.20;99.90
4052;DHT22;2040;50.924;11.604;2023-04-01T04:32:17;8.10;99.90
4052;DHT22;2040;50.924;11.604;2023-04-01T04:34:43;8.20;99.90
4052;DHT22;2040;50.924;11.604;2023-04-01T04:37:08;8.30;99.90
4052;DHT22;2040;50.924;11.604;2023-04-01T04:39:34;8.20;99.90
4052;DHT22;2040;50.924;11.604;2023-04-01T04:41:59;8.20;99.90
4052;DHT22;2040;50.924;11.604;2023-04-01T04:44:25;8.10;99.90
4052;DHT22;2040;50.924;11.604;2023-04-01T04:46:51;8.10;99.90
4052;DHT22;2040;50.924;11.604;2023-04-01T04:49:16;8.10;99.90
4052;DHT22;2040;50.924;11.604;2023-04-01T04:51:42;8.10;99.90
4052;DHT22;2040;50.924;11.604;2023-04-01T04:54:08;8.10;99.90
4052;DHT22;2040;50.924;11.604;2023-04-01T04:56:33;8.10;99.90
4052;DHT22;2040;50.924;11.604;2023-04-01T04:58:59;8.10;99.90
4052;DHT22;2040;50.924;11.604;2023-04-01T05:01:25;8.10;99.90
4052;DHT22;2040;50.924;11.604;2023-04-01T05:03:51;8.10;99.90
4052;DHT22;2040;50.924;11.604;2023-04-01T05:06:17;8.10;99.90
4052;DHT22;2040;50.924;11.604;2023-04-01T05:08:44;8.10;99.90
4052;DHT22;2040;50.924;11.604;2023-04-01T05:11:13;8.20;99.90
4052;DHT22;2040;50.924;11.604;2023-04-01T05:13:38;8.20;99.90
4052;DHT22;2040;50.924;11.604;2023-04-01T05:16:11;8.20;99.90
4052;DHT22;2040;50.924;11.604;2023-04-01T05:18:37;8.30;99.90
4052;DHT22;2040;50.924;11.604;2023-04-01T05:21:03;8.30;99.90
4052;DHT22;2040;50.924;11.604;2023-04-01T05:23:31;8.30;99.90
4052;DHT22;2040;50.924;11.604;2023-04-01T05:25:56;8.30;99.90
4052;DHT22;2040;50.924;11.604;2023-04-01T05:28:22;8.30;99.90
4052;DHT22;2040;50.924;11.604;2023-04-01T05:30:48;8.30;99.90
4052;DHT22;2040;50.924;11.604;2023-04-01T05:33:14;8.30;99.90
4052;DHT22;2040;50.924;11.604;2023-04-01T05:35:40;8.30;99.90
4052;DHT22;2040;50.924;11.604;2023-04-01T05:38:06;8.30;99.90
4052;DHT22;2040;50.924;11.604;2023-04-01T05:40:32;8.30;99.90
4052;DHT22;2040;50.924;11.604;2023-04-01T05:42:59;8.30;99.90
4052;DHT22;2040;50.924;11.604;2023-04-01T05:45:25;8.30;99.90
4052;DHT22;2040;50.924;11.604;2023-04-01T05:47:51;8.30;99.90
4052;DHT22;2040;50.924;11.604;2023-04-01T05:50:17;8.40;99.90
4052;DHT22;2040;50.924;11.604;2023-04-01T05:52:42;8.40;99.90
4052;DHT22;2040;50.924;11.604;2023-04-01T05:55:08;8.40;99.90
4052;DHT22;2040;50.924;11.604;2023-04-01T05:57:34;8.40;99.90
4052;DHT22;2040;50.924;11.604;2023-04-01T05:59:59;8.40;99.90
4052;DHT22;2040;50.924;11.604;2023-04-01T06:02:25;8.40;99.90
4052;DHT22;2040;50.924;11.604;2023-04-01T06:05:09;8.40;99.90
4052;DHT22;2040;50.924;11.604;2023-04-01T06:07:36;8.50;99.90
4052;DHT22;2040;50.924;11.604;2023-04-01T06:10:09;8.50;99.90
4052;DHT22;2040;50.924;11.604;2023-04-01T06:12:45;8.50;99.90
4052;DHT22;2040;50.924;11.604;2023-04-01T06:15:30;8.50;99.90
4052;DHT22;2040;50.924;11.604;2023-04-01T06:18:07;8.60;99.90
4052;DHT22;2040;50.924;11.604;2023-04-01T06:23:32;8.60;99.90
4052;DHT22;2040;50.924;11.604;2023-04-01T06:26:23;8.60;99.90
4052;DHT22;2040;50.924;11.604;2023-04-01T06:31:49;8.60;99.90
4052;DHT22;2040;50.924;11.604;2023-04-01T06:40:12;8.70;99.90
4052;DHT22;2040;50.924;11.604;2023-04-01T06:45:52;8.80;99.90
4052;DHT22;2040;50.924;11.604;2023-04-01T06:54:03;8.90;99.90
4052;DHT22;2040;50.924;11.604;2023-04-01T06:56:30;9.00;99.90
4052;DHT22;2040;50.924;11.604;2023-04-01T06:59:27;9.00;99.90
4052;DHT22;2040;50.924;11.604;2023-04-01T07:01:55;9.10;99.90
4052;DHT22;2040;50.924;11.604;2023-04-01T07:06:59;9.20;99.90
4052;DHT22;2040;50.924;11.604;2023-04-01T07:09:35;9.30;99.90
4052;DHT22;2040;50.924;11.604;2023-04-01T07:12:09;9.30;99.90
4052;DHT22;2040;50.924;11.604;2023-04-01T07:14:40;9.30;99.90
4052;DHT22;2040;50.924;11.604;2023-04-01T07:17:14;9.40;99.90
4052;DHT22;2040;50.924;11.604;2023-04-01T07:20:05;9.40;99.90
4052;DHT22;2040;50.924;11.604;2023-04-01T07:25:20;9.60;99.90
4052;DHT22;2040;50.924;11.604;2023-04-01T07:27:46;9.60;99.90
4052;DHT22;2040;50.924;11.604;2023-04-01T07:30:21;9.60;99.90
4052;DHT22;2040;50.924;11.604;2023-04-01T07:36:06;9.70;99.90
4052;DHT22;2040;50.924;11.604;2023-04-01T07:41:19;9.90;99.90
4052;DHT22;2040;50.924;11.604;2023-04-01T07:44:00;10.00;99.90
4052;DHT22;2040;50.924;11.604;2023-04-01T07:49:21;10.10;99.90
4052;DHT22;2040;50.924;11.604;2023-04-01T07:51:54;10.20;99.90
4052;DHT22;2040;50.924;11.604;2023-04-01T07:57:18;10.20;99.90
4052;DHT22;2040;50.924;11.604;2023-04-01T08:10:34;10.50;99.90
4052;DHT22;2040;50.924;11.604;2023-04-01T08:16:11;10.50;99.90
4052;DHT22;2040;50.924;11.604;2023-04-01T08:19:41;10.40;99.90
4052;DHT22;2040;50.924;11.604;2023-04-01T08:21:48;10.30;99.90
4052;DHT22;2040;50.924;11.604;2023-04-01T08:24:41;10.10;99.90
4052;DHT22;2040;50.924;11.604;2023-04-01T08:30:21;10.20;99.90
4052;DHT22;2040;50.924;11.604;2023-04-01T08:32:56;10.30;99.90
4052;DHT22;2040;50.924;11.604;2023-04-01T08:35:41;10.30;99.90
4052;DHT22;2040;50.924;11.604;2023-04-01T08:38:17;10.30;99.90
4052;DHT22;2040;50.924;11.604;2023-04-01T08:41:09;10.30;99.90
4052;DHT22;2040;50.924;11.604;2023-04-01T08:43:55;10.20;99.90
4052;DHT22;2040;50.924;11.604;2023-04-01T08:46:38;10.10;99.90
4052;DHT22;2040;50.924;11.604;2023-04-01T08:49:09;10.20;99.90
4052;DHT22;2040;50.924;11.604;2023-04-01T08:52:19;10.20;99.90
4052;DHT22;2040;50.924;11.604;2023-04-01T08:55:17;10.10;99.90
4052;DHT22;2040;50.924;11.604;2023-04-01T09:00:57;10.10;99.90
4052;DHT22;2040;50.924;11.604;2023-04-01T09:09:35;10.20;99.90
4052;DHT22;2040;50.924;11.604;2023-04-01T09:12:26;10.20;99.90
4052;DHT22;2040;50.924;11.604;2023-04-01T09:18:39;10.20;99.90
4052;DHT22;2040;50.924;11.604;2023-04-01T09:21:19;10.30;99.90
4052;DHT22;2040;50.924;11.604;2023-04-01T09:26:39;10.60;99.90
4052;DHT22;2040;50.924;11.604;2023-04-01T09:32:53;10.80;99.90
4052;DHT22;2040;50.924;11.604;2023-04-01T09:35:20;10.90;99.90
4052;DHT22;2040;50.924;11.604;2023-04-01T09:37:55;10.90;99.90
4052;DHT22;2040;50.924;11.604;2023-04-01T09:43:25;10.80;99.90
4052;DHT22;2040;50.924;11.604;2023-04-01T09:46:15;10.80;99.90
4052;DHT22;2040;50.924;11.604;2023-04-01T09:49:08;10.80;99.90
4052;DHT22;2040;50.924;11.604;2023-04-01T10:02:14;11.10;99.90
4052;DHT22;2040;50.924;11.604;2023-04-01T10:05:25;11.10;99.90
4052;DHT22;2040;50.924;11.604;2023-04-01T10:11:11;11.30;99.90
4052;DHT22;2040;50.924;11.604;2023-04-01T10:16:24;11.00;99.90
4052;DHT22;2040;50.924;11.604;2023-04-01T10:18:55;11.00;99.90
4052;DHT22;2040;50.924;11.604;2023-04-01T10:30:00;10.80;99.90
4052;DHT22;2040;50.924;11.604;2023-04-01T10:38:18;10.60;99.90
4052;DHT22;2040;50.924;11.604;2023-04-01T10:46:50;10.50;99.90
4052;DHT22;2040;50.924;11.604;2023-04-01T11:03:06;10.30;99.90
4052;DHT22;2040;50.924;11.604;2023-04-01T11:08:57;10.60;99.90
4052;DHT22;2040;50.924;11.604;2023-04-01T11:20:56;11.30;99.90
4052;DHT22;2040;50.924;11.604;2023-04-01T11:26:28;11.60;99.90
4052;DHT22;2040;50.924;11.604;2023-04-01T11:29:48;11.80;99.90
4052;DHT22;2040;50.924;11.604;2023-04-01T11:43:29;11.80;99.90
4052;DHT22;2040;50.924;11.604;2023-04-01T11:46:18;11.80;99.90
4052;DHT22;2040;50.924;11.604;2023-04-01T11:52:17;11.90;99.90
4052;DHT22;2040;50.924;11.604;2023-04-01T11:55:19;11.80;99.90
4052;DHT22;2040;50.924;11.604;2023-04-01T11:57:56;11.80;99.90
4052;DHT22;2040;50.924;11.604;2023-04-01T12:09:40;12.30;99.90
4052;DHT22;2040;50.924;11.604;2023-04-01T12:12:12;12.60;99.90
4052;DHT22;2040;50.924;11.604;2023-04-01T12:15:16;12.60;99.90
4052;DHT22;2040;50.924;11.604;2023-04-01T12:17:51;12.80;99.90
4052;DHT22;2040;50.924;11.604;2023-04-01T12:23:42;12.50;99.90
4052;DHT22;2040;50.924;11.604;2023-04-01T12:26:35;12.40;99.90
4052;DHT22;2040;50.924;11.604;2023-04-01T12:29:41;12.40;99.90
4052;DHT22;2040;50.924;11.604;2023-04-01T12:32:25;12.30;99.90
4052;DHT22;2040;50.924;11.604;2023-04-01T12:37:50;12.30;99.90
4052;DHT22;2040;50.924;11.604;2023-04-01T12:40:43;12.20;99.90
4052;DHT22;2040;50.924;11.604;2023-04-01T12:57:17;12.10;99.90
4052;DHT22;2040;50.924;11.604;2023-04-01T13:00:12;12.20;99.90
4052;DHT22;2040;50.924;11.604;2023-04-01T13:09:11;12.10;99.90
4052;DHT22;2040;50.924;11.604;2023-04-01T13:12:05;12.10;99.90
4052;DHT22;2040;50.924;11.604;2023-04-01T13:15:04;12.30;99.90
4052;DHT22;2040;50.924;11.604;2023-04-01T13:20:25;12.40;99.90
4052;DHT22;2040;50.924;11.604;2023-04-01T13:25:53;12.60;99.90
4052;DHT22;2040;50.924;11.604;2023-04-01T13:28:29;12.70;99.90
4052;DHT22;2040;50.924;11.604;2023-04-01T13:34:12;12.70;99.90
4052;DHT22;2040;50.924;11.604;2023-04-01T13:42:28;12.50;99.90
4052;DHT22;2040;50.924;11.604;2023-04-01T13:45:01;12.30;99.90
4052;DHT22;2040;50.924;11.604;2023-04-01T13:47:42;12.30;99.90
4052;DHT22;2040;50.924;11.604;2023-04-01T13:50:23;12.10;99.90
4052;DHT22;2040;50.924;11.604;2023-04-01T14:06:58;11.20;99.90
4052;DHT22;2040;50.924;11.604;2023-04-01T14:20:38;11.30;99.90
4052;DHT22;2040;50.924;11.604;2023-04-01T14:26:16;11.40;99.90
4052;DHT22;2040;50.924;11.604;2023-04-01T14:28:59;11.40;99.90
4052;DHT22;2040;50.924;11.604;2023-04-01T14:31:43;11.30;99.90
4052;DHT22;2040;50.924;11.604;2023-04-01T14:37:15;10.90;99.90
4052;DHT22;2040;50.924;11.604;2023-04-01T14:43:10;10.80;99.90
4052;DHT22;2040;50.924;11.604;2023-04-01T14:46:23;11.00;99.90
4052;DHT22;2040;50.924;11.604;2023-04-01T14:49:05;11.10;99.90
4052;DHT22;2040;50.924;11.604;2023-04-01T14:51:40;11.20;99.90
4052;DHT22;2040;50.924;11.604;2023-04-01T14:54:14;11.30;99.90
4052;DHT22;2040;50.924;11.604;2023-04-01T14:57:34;11.30;99.90
4052;DHT22;2040;50.924;11.604;2023-04-01T14:59:40;11.40;99.90
4052;DHT22;2040;50.924;11.604;2023-04-01T15:02:22;11.60;99.90
4052;DHT22;2040;50.924;11.604;2023-04-01T15:08:20;11.70;99.90
4052;DHT22;2040;50.924;11.604;2023-04-01T15:13:46;11.50;99.90
4052;DHT22;2040;50.924;11.604;2023-04-01T15:16:31;11.50;99.90
4052;DHT22;2040;50.924;11.604;2023-04-01T15:28:00;11.50;99.90
4052;DHT22;2040;50.924;11.604;2023-04-01T15:30:48;11.50;99.90
4052;DHT22;2040;50.924;11.604;2023-04-01T15:38:32;11.40;99.90
4052;DHT22;2040;50.924;11.604;2023-04-01T15:43:41;11.50;99.90
4052;DHT22;2040;50.924;11.604;2023-04-01T15:52:17;11.30;99.90
4052;DHT22;2040;50.924;11.604;2023-04-01T15:57:31;11.40;99.90
4052;DHT22;2040;50.924;11.604;2023-04-01T16:02:48;11.30;99.90
4052;DHT22;2040;50.924;11.604;2023-04-01T16:11:08;11.20;99.90
4052;DHT22;2040;50.924;11.604;2023-04-01T16:13:48;11.20;99.90
4052;DHT22;2040;50.924;11.604;2023-04-01T16:19:31;11.10;99.90
4052;DHT22;2040;50.924;11.604;2023-04-01T16:22:44;11.00;99.90
4052;DHT22;2040;50.924;11.604;2023-04-01T16:25:26;11.00;99.90
4052;DHT22;2040;50.924;11.604;2023-04-01T16:30:38;10.90;99.90
4052;DHT22;2040;50.924;11.604;2023-04-01T16:36:13;10.80;99.90
4052;DHT22;2040;50.924;11.604;2023-04-01T16:41:32;10.60;99.90
4052;DHT22;2040;50.924;11.604;2023-04-01T16:44:16;10.50;99.90
4052;DHT22;2040;50.924;11.604;2023-04-01T16:47:07;10.50;99.90
4052;DHT22;2040;50.924;11.604;2023-04-01T16:49:40;10.40;99.90
4052;DHT22;2040;50.924;11.604;2023-04-01T16:54:59;10.20;99.90
4052;DHT22;2040;50.924;11.604;2023-04-01T16:57:50;10.00;99.90
4052;DHT22;2040;50.924;11.604;2023-04-01T17:03:16;10.00;99.90
4052;DHT22;2040;50.924;11.604;2023-04-01T17:06:00;10.00;99.90
4052;DHT22;2040;50.924;11.604;2023-04-01T17:11:39;9.80;99.90
4052;DHT22;2040;50.924;11.604;2023-04-01T17:25:35;9.40;99.90
4052;DHT22;2040;50.924;11.604;2023-04-01T17:47:16;9.10;99.90
4052;DHT22;2040;50.924;11.604;2023-04-01T18:00:59;9.20;99.90
4052;DHT22;2040;50.924;11.604;2023-04-01T18:11:49;9.10;99.90
4052;DHT22;2040;50.924;11.604;2023-04-01T18:22:55;9.10;99.90
4052;DHT22;2040;50.924;11.604;2023-04-01T18:25:38;8.90;99.90
4052;DHT22;2040;50.924;11.604;2023-04-01T18:39:22;9.40;99.90
4052;DHT22;2040;50.924;11.604;2023-04-01T18:42:07;9.20;99.90
4052;DHT22;2040;50.924;11.604;2023-04-01T18:44:48;9.00;99.90
4052;DHT22;2040;50.924;11.604;2023-04-01T18:52:57;8.70;99.90
4052;DHT22;2040;50.924;11.604;2023-04-01T18:55:35;8.70;99.90
4052;DHT22;2040;50.924;11.604;2023-04-01T18:58:23;8.60;99.90
4052;DHT22;2040;50.924;11.604;2023-04-01T19:06:45;8.80;99.90
4052;DHT22;2040;50.924;11.604;2023-04-01T19:09:31;8.80;99.90
4052;DHT22;2040;50.924;11.604;2023-04-01T19:12:26;8.70;99.90
4052;DHT22;2040;50.924;11.604;2023-04-01T19:15:25;8.80;99.90
4052;DHT22;2040;50.924;11.604;2023-04-01T19:18:07;8.80;99.90
4052;DHT22;2040;50.924;11.604;2023-04-01T19:21:03;8.70;99.90
4052;DHT22;2040;50.924;11.604;2023-04-01T19:26:30;8.60;99.90
4052;DHT22;2040;50.924;11.604;2023-04-01T19:35:06;8.50;99.90
4052;DHT22;2040;50.924;11.604;2023-04-01T19:37:51;8.50;99.90
4052;DHT22;2040;50.924;11.604;2023-04-01T19:41:01;8.60;99.90
4052;DHT22;2040;50.924;11.604;2023-04-01T19:43:59;8.70;99.90
4052;DHT22;2040;50.924;11.604;2023-04-01T19:46:49;8.70;99.90
4052;DHT22;2040;50.924;11.604;2023-04-01T19:52:14;8.80;99.90
4052;DHT22;2040;50.924;11.604;2023-04-01T20:00:43;8.80;99.90
4052;DHT22;2040;50.924;11.604;2023-04-01T20:03:41;8.70;99.90
4052;DHT22;2040;50.924;11.604;2023-04-01T20:06:35;8.90;99.90
4052;DHT22;2040;50.924;11.604;2023-04-01T20:14:50;8.70;99.90
4052;DHT22;2040;50.924;11.604;2023-04-01T20:25:17;8.70;99.90
4052;DHT22;2040;50.924;11.604;2023-04-01T20:27:52;8.70;99.90
4052;DHT22;2040;50.924;11.604;2023-04-01T20:30:27;8.70;99.90
4052;DHT22;2040;50.924;11.604;2023-04-01T20:36:51;8.70;99.90
4052;DHT22;2040;50.924;11.604;2023-04-01T20:44:41;8.80;99.90
4052;DHT22;2040;50.924;11.604;2023-04-01T20:50:11;8.60;99.90
4052;DHT22;2040;50.924;11.604;2023-04-01T20:52:53;8.60;99.90
4052;DHT22;2040;50.924;11.604;2023-04-01T20:58:13;8.50;99.90
4052;DHT22;2040;50.924;11.604;2023-04-01T21:09:29;8.70;99.90
4052;DHT22;2040;50.924;11.604;2023-04-01T21:14:54;8.90;99.90
4052;DHT22;2040;50.924;11.604;2023-04-01T21:17:51;8.80;99.90
4052;DHT22;2040;50.924;11.604;2023-04-01T21:23:25;8.60;99.90
4052;DHT22;2040;50.924;11.604;2023-04-01T21:29:18;8.50;99.90
4052;DHT22;2040;50.924;11.604;2023-04-01T21:31:50;8.60;99.90
4052;DHT22;2040;50.924;11.604;2023-04-01T21:44:51;8.60;99.90
4052;DHT22;2040;50.924;11.604;2023-04-01T21:47:44;8.60;99.90
4052;DHT22;2040;50.924;11.604;2023-04-01T21:59:39;8.40;99.90
4052;DHT22;2040;50.924;11.604;2023-04-01T22:10:56;8.60;99.90
4052;DHT22;2040;50.924;11.604;2023-04-01T22:13:32;8.70;99.90
4052;DHT22;2040;50.924;11.604;2023-04-01T22:21:33;8.60;99.90
4052;DHT22;2040;50.924;11.604;2023-04-01T22:24:27;8.50;99.90
4052;DHT22;2040;50.924;11.604;2023-04-01T22:32:32;8.50;99.90
4052;DHT22;2040;50.924;11.604;2023-04-01T22:35:22;8.40;99.90
4052;DHT22;2040;50.924;11.604;2023-04-01T22:43:37;8.40;99.90
4052;DHT22;2040;50.924;11.604;2023-04-01T22:48:55;8.30;99.90
4052;DHT22;2040;50.924;11.604;2023-04-01T22:51:52;8.20;99.90
4052;DHT22;2040;50.924;11.604;2023-04-01T22:54:32;8.10;99.90
4052;DHT22;2040;50.924;11.604;2023-04-01T22:57:06;8.00;99.90
4052;DHT22;2040;50.924;11.604;2023-04-01T23:00:05;8.00;99.90
4052;DHT22;2040;50.924;11.604;2023-04-01T23:02:46;7.90;99.90
4052;DHT22;2040;50.924;11.604;2023-04-01T23:05:15;7.90;99.90
4052;DHT22;2040;50.924;11.604;2023-04-01T23:07:56;7.90;99.90
4052;DHT22;2040;50.924;11.604;2023-04-01T23:13:13;7.70;99.90
4052;DHT22;2040;50.924;11.604;2023-04-01T23:15:40;7.70;99.90
4052;DHT22;2040;50.924;11.604;2023-04-01T23:18:09;7.70;99.90
4052;DHT22;2040;50.924;11.604;2023-04-01T23:23:15;7.60;99.90
4052;DHT22;2040;50.924;11.604;2023-04-01T23:26:08;7.50;99.90
4052;DHT22;2040;50.924;11.604;2023-04-01T23:28:47;7.50;99.90
4052;DHT22;2040;50.924;11.604;2023-04-01T23:31:38;7.50;99.90
4052;DHT22;2040;50.924;11.604;2023-04-01T23:39:33;7.50;99.90
4052;DHT22;2040;50.924;11.604;2023-04-01T23:42:12;7.30;99.90
4052;DHT22;2040;50.924;11.604;2023-04-01T23:44:39;7.20;99.90
4052;DHT22;2040;50.924;11.604;2023-04-01T23:47:06;7.20;99.90
4052;DHT22;2040;50.924;11.604;2023-04-01T23:49:40;7.10;99.90
4052;DHT22;2040;50.924;11.604;2023-04-01T23:52:21;7.10;99.90
4052;DHT22;2040;50.924;11.604;2023-04-01T23:54:57;7.00;99.90
4052;DHT22;2040;50.924;11.604;2023-04-01T23:57:30;6.90;99.90
